Terminal Aerodrome Forecast
Issued by NWS

Current Version | Previous Version | Text Only | Print | Product List | Glossary On
Versions: 1 2 3 4 5 6 7 8 9 10 11 12 13 14 15 16 17 18 19 20 21 22 23 24 25 26 27 28 29
000
FTAK31 PAFA 271737
TAFAUN
TAF
PAUN 271737Z 2718/2818 08025G35KT 5SM BLSN FEW040 SCT050
     FM280000 08030G40KT 4SM BLSN BKN120
     FM280900 09035G50KT 4SM BLSN SCT060 BKN120
     FM281500 11035G45KT 1/2SM -SN BLSN OVC015=

USA.gov is the U.S. government's official web portal to all federal, state and local government web resources and services.